Terminal Aerodrome Forecast
Issued by NWS

Current Version | Previous Version | Graphics & Text | Print | Product List | Glossary On
Versions: 1 2 3 4 5 6 7 8 9 10 11 12 13 14 15 16 17 18 19 20 21 22 23 24 25 26 27 28 29
000
FTUS41 KILN 301700 AAA
TAFLUK
TAF AMD
KLUK 301700Z 3017/3112 20011G19KT P6SM VCTS BKN050CB
      TEMPO 3017/3018 5SM -SHRA BKN040
     FM302100 20011G19KT P6SM SCT050
     FM310000 20006KT P6SM FEW050 SCT150
     FM310800 18008KT 5SM BR VCSH SCT025 BKN050=

USA.gov is the U.S. government's official web portal to all federal, state and local government web resources and services.